createdAt,value
2023-04-14T00:02:16.224Z,59.86
2023-04-14T00:04:53.066Z,59.59
2023-04-14T00:07:21.580Z,59.98
2023-04-14T00:09:49.882Z,59.66
2023-04-14T00:12:18.563Z,59.68
2023-04-14T00:14:47.078Z,59.99
2023-04-14T00:17:15.608Z,59.76
2023-04-14T00:19:45.403Z,60.00
2023-04-14T00:22:13.810Z,60.00
2023-04-14T00:24:43.648Z,60.06
2023-04-14T00:27:12.285Z,59.90
2023-04-14T00:29:40.833Z,60.21
2023-04-14T00:32:09.295Z,60.40
2023-04-14T00:34:37.658Z,60.56
2023-04-14T00:37:07.392Z,60.70
2023-04-14T00:39:36.484Z,60.69
2023-04-14T00:42:05.386Z,61.06
2023-04-14T00:44:33.792Z,61.32
2023-04-14T00:47:02.925Z,61.40
2023-04-14T00:49:31.446Z,61.56
2023-04-14T00:52:00.034Z,61.16
2023-04-14T00:54:31.402Z,61.21
2023-04-14T00:57:01.868Z,60.95
2023-04-14T00:59:30.569Z,61.17
2023-04-14T01:02:00.346Z,61.08
2023-04-14T01:04:44.738Z,61.16
2023-04-14T01:07:18.384Z,61.45
2023-04-14T01:09:48.532Z,61.35
2023-04-14T01:12:31.758Z,61.31
2023-04-14T01:15:12.595Z,61.04
2023-04-14T01:17:49.918Z,61.38
2023-04-14T01:20:28.351Z,61.40
2023-04-14T01:23:05.728Z,61.36
2023-04-14T01:26:20.064Z,61.48
2023-04-14T01:29:27.149Z,61.73
2023-04-14T01:32:03.289Z,61.46
2023-04-14T01:34:40.402Z,61.39
2023-04-14T01:37:15.093Z,61.26
2023-04-14T01:39:50.073Z,61.83
2023-04-14T01:42:26.625Z,61.33
2023-04-14T01:45:03.210Z,61.36
2023-04-14T01:47:34.325Z,61.92
2023-04-14T01:50:05.315Z,61.80
2023-04-14T01:52:35.494Z,61.74
2023-04-14T01:55:07.152Z,62.06
2023-04-14T01:57:37.133Z,61.60
2023-04-14T02:00:08.938Z,61.85
2023-04-14T02:02:40.511Z,61.77
2023-04-14T02:05:11.392Z,61.71
2023-04-14T02:07:41.630Z,62.33
2023-04-14T02:10:12.499Z,61.91
2023-04-14T02:12:43.251Z,61.99
2023-04-14T02:15:16.163Z,62.24
2023-04-14T02:17:49.790Z,62.38
2023-04-14T02:20:21.135Z,61.90
2023-04-14T02:22:49.839Z,62.48
2023-04-14T02:25:18.292Z,62.31
2023-04-14T02:27:54.240Z,61.77
2023-04-14T02:30:30.289Z,61.89
2023-04-14T02:33:06.571Z,61.58
2023-04-14T02:35:42.699Z,61.73
2023-04-14T02:38:19.754Z,61.45
2023-04-14T02:40:48.581Z,61.37
2023-04-14T02:43:22.506Z,61.29
2023-04-14T02:45:54.349Z,61.50
2023-04-14T02:48:28.462Z,61.40
2023-04-14T02:50:58.796Z,61.69
2023-04-14T02:53:28.886Z,61.77
2023-04-14T02:55:58.296Z,61.92
2023-04-14T02:58:29.205Z,62.12
2023-04-14T03:00:59.001Z,61.90
2023-04-14T03:03:30.197Z,61.98
2023-04-14T03:05:59.017Z,62.24
2023-04-14T03:08:28.424Z,62.05
2023-04-14T03:10:57.405Z,62.18
2023-04-14T03:13:28.517Z,61.91
2023-04-14T03:15:58.451Z,62.43
2023-04-14T03:18:29.242Z,62.58
2023-04-14T03:21:00.762Z,62.76
2023-04-14T03:23:29.975Z,62.54
2023-04-14T03:26:01.563Z,62.51
2023-04-14T03:28:35.509Z,62.36
2023-04-14T03:31:07.547Z,62.56
2023-04-14T03:33:38.750Z,62.50
2023-04-14T03:36:09.114Z,62.04
2023-04-14T03:38:38.125Z,61.95
2023-04-14T03:41:09.681Z,61.64
2023-04-14T03:43:38.912Z,61.96
2023-04-14T03:46:07.812Z,62.24
2023-04-14T03:48:42.782Z,62.09
2023-04-14T03:51:15.034Z,62.28
2023-04-14T03:53:46.438Z,62.21
2023-04-14T03:56:16.778Z,61.99
2023-04-14T03:58:49.375Z,62.07
2023-04-14T04:01:20.544Z,62.08
2023-04-14T04:03:51.831Z,62.26
2023-04-14T04:06:20.713Z,62.59
2023-04-14T04:08:50.879Z,62.46
2023-04-14T04:11:21.664Z,62.24
2023-04-14T04:13:52.342Z,62.34
2023-04-14T04:16:22.636Z,62.79
2023-04-14T04:18:53.166Z,62.59
2023-04-14T04:21:22.641Z,62.56
2023-04-14T04:23:56.060Z,62.44
2023-04-14T04:26:26.073Z,62.47
2023-04-14T04:28:58.184Z,62.48
2023-04-14T04:31:28.550Z,62.57
2023-04-14T04:33:58.649Z,62.49
2023-04-14T04:36:28.941Z,62.62
2023-04-14T04:38:58.766Z,62.60
2023-04-14T04:41:29.055Z,62.88
2023-04-14T04:43:59.108Z,62.66
2023-04-14T04:46:47.319Z,62.33
2023-04-14T04:49:17.069Z,62.84
2023-04-14T04:51:45.499Z,62.76
2023-04-14T04:54:14.159Z,62.84
2023-04-14T04:56:43.817Z,62.85
2023-04-14T04:59:12.160Z,63.14
2023-04-14T05:01:40.950Z,62.78
2023-04-14T05:04:09.431Z,63.01
2023-04-14T05:06:39.329Z,62.84
2023-04-14T05:09:08.105Z,62.91
2023-04-14T05:11:36.924Z,62.81
2023-04-14T05:14:05.347Z,62.72
2023-04-14T05:16:33.957Z,62.62
2023-04-14T05:19:03.095Z,62.63
2023-04-14T05:21:31.633Z,62.61
2023-04-14T05:24:01.503Z,62.74
2023-04-14T05:29:01.828Z,62.90
2023-04-14T05:31:30.481Z,63.12
2023-04-14T05:33:59.054Z,63.26
2023-04-14T05:36:27.894Z,63.59
2023-04-14T05:38:56.309Z,63.52
2023-04-14T05:41:26.650Z,63.43
2023-04-14T05:43:54.953Z,63.40
2023-04-14T05:46:23.338Z,63.34
2023-04-14T05:48:51.642Z,62.86
2023-04-14T05:51:19.966Z,63.28
2023-04-14T05:53:48.286Z,63.63
2023-04-14T05:56:16.600Z,63.89
2023-04-14T05:58:46.278Z,63.74
2023-04-14T06:01:14.641Z,63.52
2023-04-14T06:03:43.291Z,63.62
2023-04-14T06:06:11.827Z,63.77
2023-04-14T06:08:40.458Z,63.79
2023-04-14T06:11:08.876Z,63.69
2023-04-14T06:13:37.220Z,63.98
2023-04-14T06:16:08.008Z,63.98
2023-04-14T06:18:36.402Z,63.85
2023-04-14T06:21:05.565Z,63.23
2023-04-14T06:23:33.961Z,62.94
2023-04-14T06:26:02.310Z,63.19
2023-04-14T06:28:30.671Z,63.36
2023-04-14T06:31:00.508Z,63.76
2023-04-14T06:33:30.383Z,63.26
2023-04-14T06:35:58.897Z,63.39
2023-04-14T06:38:27.233Z,63.28
2023-04-14T06:40:55.666Z,63.61
2023-04-14T06:43:24.075Z,63.33
2023-04-14T06:45:52.563Z,62.76
2023-04-14T06:48:21.077Z,62.72
2023-04-14T06:50:56.709Z,62.90
2023-04-14T06:53:26.010Z,63.31
2023-04-14T06:56:00.576Z,63.56
2023-04-14T06:58:30.192Z,63.32
2023-04-14T07:00:59.667Z,63.65
2023-04-14T07:03:29.513Z,63.56
2023-04-14T07:06:05.016Z,63.22
2023-04-14T07:08:35.061Z,63.19
2023-04-14T07:11:05.727Z,63.18
2023-04-14T07:13:34.895Z,63.35
2023-04-14T07:16:04.185Z,63.39
2023-04-14T07:18:32.811Z,63.13
2023-04-14T07:21:03.039Z,63.33
2023-04-14T07:23:33.609Z,62.89
2023-04-14T07:26:02.154Z,63.03
2023-04-14T07:28:30.586Z,63.39
2023-04-14T07:30:59.013Z,63.30
2023-04-14T07:33:31.168Z,63.43
2023-04-14T07:36:02.900Z,63.27
2023-04-14T07:38:33.965Z,63.36
2023-04-14T07:41:05.199Z,63.61
2023-04-14T07:43:35.659Z,63.56
2023-04-14T07:46:05.934Z,63.56
2023-04-14T07:48:36.016Z,63.53
2023-04-14T07:51:05.501Z,63.31
2023-04-14T07:53:40.435Z,63.33
2023-04-14T07:56:09.195Z,63.46
2023-04-14T07:58:37.782Z,63.39
2023-04-14T08:01:06.630Z,63.59
2023-04-14T08:03:37.521Z,63.56
2023-04-14T08:06:07.566Z,63.42
2023-04-14T08:08:37.633Z,63.33
2023-04-14T08:11:06.106Z,63.79
2023-04-14T08:13:34.552Z,63.64
2023-04-14T08:16:03.196Z,63.52
2023-04-14T08:18:31.815Z,63.50
2023-04-14T08:21:00.365Z,63.57
2023-04-14T08:23:28.870Z,63.66
2023-04-14T08:25:58.590Z,63.69
2023-04-14T08:28:28.894Z,63.57
2023-04-14T08:30:57.396Z,63.57
2023-04-14T08:33:25.788Z,63.20
2023-04-14T08:35:56.383Z,63.25
2023-04-14T08:38:28.033Z,63.37
2023-04-14T08:40:58.688Z,63.27
2023-04-14T08:43:27.068Z,63.29
2023-04-14T08:45:56.465Z,63.45
2023-04-14T08:48:30.580Z,63.12
2023-04-14T08:51:07.850Z,63.32
2023-04-14T08:53:42.936Z,63.43
2023-04-14T08:56:17.217Z,63.37
2023-04-14T08:58:47.388Z,63.61
2023-04-14T09:01:16.758Z,63.40
2023-04-14T09:03:46.050Z,63.66
2023-04-14T09:06:15.162Z,63.54
2023-04-14T09:08:44.570Z,63.58
2023-04-14T09:11:16.801Z,63.38
2023-04-14T09:13:46.177Z,63.60
2023-04-14T09:16:15.140Z,63.71
2023-04-14T09:18:43.637Z,64.06
2023-04-14T09:21:49.919Z,64.27
2023-04-14T09:24:09.277Z,63.91
2023-04-14T09:26:40.428Z,64.31
2023-04-14T09:29:08.961Z,64.31
2023-04-14T09:31:38.476Z,64.52
2023-04-14T09:34:15.865Z,64.85
2023-04-14T09:36:59.860Z,64.22
2023-04-14T09:39:28.297Z,63.52
2023-04-14T09:41:58.115Z,63.67
2023-04-14T09:44:26.538Z,63.58
2023-04-14T09:46:59.950Z,63.35
2023-04-14T09:49:29.299Z,63.95
2023-04-14T09:52:05.691Z,63.58
2023-04-14T09:54:34.168Z,63.81
2023-04-14T09:57:04.558Z,63.69
2023-04-14T09:59:35.277Z,63.81
2023-04-14T10:02:07.428Z,64.16
2023-04-14T10:04:36.783Z,64.06
2023-04-14T10:07:08.574Z,63.77
2023-04-14T10:09:38.820Z,63.96
2023-04-14T10:12:13.887Z,64.15
2023-04-14T10:14:43.278Z,64.76
2023-04-14T10:17:13.686Z,64.58
2023-04-14T10:19:42.243Z,64.55
2023-04-14T10:22:11.374Z,64.29
2023-04-14T10:24:41.620Z,64.43
2023-04-14T10:27:12.351Z,64.51
2023-04-14T10:29:42.440Z,64.69
2023-04-14T10:32:14.687Z,64.98
2023-04-14T10:34:58.849Z,64.18
2023-04-14T10:37:27.281Z,64.13
2023-04-14T10:39:57.337Z,64.15
2023-04-14T10:42:27.387Z,64.08
2023-04-14T10:45:08.144Z,64.12
2023-04-14T10:47:41.036Z,64.17
2023-04-14T10:50:14.450Z,64.24
2023-04-14T10:52:52.011Z,64.14
2023-04-14T10:55:23.961Z,64.08
2023-04-14T10:57:55.170Z,64.53
2023-04-14T11:00:31.852Z,64.11
2023-04-14T11:03:05.910Z,64.10
2023-04-14T11:05:35.214Z,64.70
2023-04-14T11:08:14.733Z,64.14
2023-04-14T11:10:51.411Z,64.00
2023-04-14T11:13:21.400Z,64.02
2023-04-14T11:15:58.921Z,64.08
2023-04-14T11:18:35.814Z,64.02
2023-04-14T11:21:06.312Z,64.13
2023-04-14T11:23:36.436Z,63.95
2023-04-14T11:26:08.286Z,63.95
2023-04-14T11:28:40.064Z,64.29
2023-04-14T11:31:12.156Z,64.39
2023-04-14T11:33:42.717Z,64.10
2023-04-14T11:36:12.971Z,64.18
2023-04-14T11:38:41.711Z,64.00
2023-04-14T11:41:10.930Z,64.12
2023-04-14T11:43:46.474Z,63.93
2023-04-14T11:46:15.613Z,64.24
2023-04-14T11:48:44.098Z,64.02
2023-04-14T11:51:12.766Z,64.35
2023-04-14T11:53:41.420Z,64.39
2023-04-14T11:56:12.898Z,64.33
2023-04-14T11:58:43.140Z,64.05
2023-04-14T12:01:14.948Z,63.88
2023-04-14T12:03:43.671Z,63.99
2023-04-14T12:06:12.209Z,64.30
2023-04-14T12:08:40.677Z,64.35
2023-04-14T12:11:16.093Z,63.76
2023-04-14T12:13:47.636Z,63.92
2023-04-14T12:16:17.951Z,63.63
2023-04-14T12:18:46.911Z,63.57
2023-04-14T12:21:20.442Z,63.64
2023-04-14T12:23:49.894Z,64.23
2023-04-14T12:26:20.641Z,64.20
2023-04-14T12:28:57.465Z,64.17
2023-04-14T12:31:30.658Z,63.78
2023-04-14T12:34:05.565Z,63.97
2023-04-14T12:36:48.955Z,64.54
2023-04-14T12:39:18.515Z,64.73
2023-04-14T12:41:47.148Z,64.94
2023-04-14T12:44:20.470Z,64.15
2023-04-14T12:46:50.443Z,64.16
2023-04-14T12:49:37.456Z,63.79
2023-04-14T12:52:08.328Z,64.28
2023-04-14T12:54:52.061Z,64.00
2023-04-14T12:57:22.055Z,64.32
2023-04-14T12:59:52.088Z,64.14
2023-04-14T13:02:20.737Z,64.19
2023-04-14T13:04:49.254Z,64.02
2023-04-14T13:07:17.706Z,63.73
2023-04-14T13:09:46.054Z,64.06
2023-04-14T13:12:14.466Z,64.34
2023-04-14T13:14:42.843Z,64.86
2023-04-14T13:17:12.786Z,64.52
2023-04-14T13:19:41.284Z,63.80
2023-04-14T13:22:09.717Z,64.23
2023-04-14T13:24:38.073Z,64.36
2023-04-14T13:27:06.889Z,64.48
2023-04-14T13:29:36.116Z,64.11
2023-04-14T13:32:04.923Z,64.31
2023-04-14T13:34:34.809Z,64.04
2023-04-14T13:37:03.224Z,64.21
2023-04-14T13:39:32.090Z,64.23
2023-04-14T13:42:00.700Z,64.33
2023-04-14T13:44:29.147Z,64.67
2023-04-14T13:46:57.609Z,64.48
2023-04-14T13:49:26.110Z,64.23
2023-04-14T13:51:55.892Z,64.15
2023-04-14T13:54:24.212Z,64.41
2023-04-14T13:56:52.636Z,64.41
2023-04-14T13:59:22.971Z,63.94
2023-04-14T14:01:51.479Z,64.30
2023-04-14T14:04:20.029Z,64.40
2023-04-14T14:06:48.536Z,64.24
2023-04-14T14:09:18.263Z,63.93
2023-04-14T14:11:46.803Z,64.16
2023-04-14T14:14:15.208Z,64.09
2023-04-14T14:16:43.584Z,63.83
2023-04-14T14:19:17.129Z,64.12
2023-04-14T14:21:45.711Z,63.97
2023-04-14T14:24:14.435Z,63.94
2023-04-14T14:26:44.256Z,63.58
2023-04-14T14:29:12.932Z,63.95
2023-04-14T14:31:41.291Z,63.90
2023-04-14T14:34:10.176Z,63.73
2023-04-14T14:36:38.608Z,64.11
2023-04-14T14:39:07.103Z,63.70
2023-04-14T14:41:35.437Z,63.89
2023-04-14T14:44:05.437Z,64.03
2023-04-14T14:46:34.539Z,63.86
2023-04-14T14:49:03.189Z,63.97
2023-04-14T14:51:31.873Z,64.09
2023-04-14T14:54:09.254Z,64.24
2023-04-14T14:56:38.834Z,64.09
2023-04-14T14:59:09.683Z,64.33
2023-04-14T15:01:38.375Z,64.29
2023-04-14T15:04:07.849Z,64.56
2023-04-14T15:06:37.537Z,64.56
2023-04-14T15:09:06.747Z,64.23
2023-04-14T15:11:35.298Z,64.13
2023-04-14T15:14:03.942Z,63.84
2023-04-14T15:16:34.854Z,64.05
2023-04-14T15:19:04.254Z,64.13
2023-04-14T15:21:33.511Z,63.94
2023-04-14T15:24:02.197Z,64.03
2023-04-14T15:26:30.885Z,64.29
2023-04-14T15:28:59.600Z,64.18
2023-04-14T15:31:28.297Z,64.37
2023-04-14T15:34:01.704Z,64.06
2023-04-14T15:36:31.833Z,64.12
2023-04-14T15:39:00.292Z,64.42
2023-04-14T15:41:28.724Z,64.25
2023-04-14T15:43:57.291Z,64.41
2023-04-14T15:46:25.897Z,64.47
2023-04-14T15:48:54.354Z,64.48
2023-04-14T15:51:24.087Z,64.56
2023-04-14T15:53:53.164Z,64.54
2023-04-14T15:56:23.271Z,64.34
2023-04-14T15:58:52.072Z,64.56
2023-04-14T16:01:20.886Z,64.39
2023-04-14T16:03:52.469Z,64.31
2023-04-14T16:06:21.434Z,64.40
2023-04-14T16:08:51.429Z,64.50
2023-04-14T16:11:20.270Z,64.30
2023-04-14T16:13:48.943Z,64.36
2023-04-14T16:16:17.957Z,64.47
2023-04-14T16:18:46.419Z,64.10
2023-04-14T16:21:14.863Z,63.99
2023-04-14T16:23:43.410Z,63.97
2023-04-14T16:26:13.652Z,63.78
2023-04-14T16:28:42.995Z,63.74
2023-04-14T16:31:11.423Z,64.03
2023-04-14T16:33:40.131Z,64.12
2023-04-14T16:36:09.114Z,64.23
2023-04-14T16:38:37.859Z,64.16
2023-04-14T16:41:06.332Z,64.39
2023-04-14T16:43:36.353Z,64.09
2023-04-14T16:46:07.164Z,64.60
2023-04-14T16:48:37.153Z,64.21
2023-04-14T16:51:06.892Z,64.18
2023-04-14T16:53:36.615Z,64.27
2023-04-14T16:56:06.398Z,64.19
2023-04-14T16:58:37.107Z,64.34
2023-04-14T17:01:07.328Z,64.11
2023-04-14T17:03:36.820Z,64.49
2023-04-14T17:06:06.473Z,64.17
2023-04-14T17:08:38.848Z,64.52
2023-04-14T17:11:08.128Z,64.48
2023-04-14T17:13:38.819Z,64.45
2023-04-14T17:16:09.621Z,64.73
2023-04-14T17:18:38.489Z,64.41
2023-04-14T17:21:08.257Z,64.66
2023-04-14T17:23:38.088Z,64.43
2023-04-14T17:26:07.473Z,64.45
2023-04-14T17:28:38.778Z,64.61
2023-04-14T17:31:14.144Z,64.67
2023-04-14T17:33:44.394Z,64.76
2023-04-14T17:36:16.899Z,64.43
2023-04-14T17:38:46.086Z,64.55
2023-04-14T17:41:14.977Z,64.94
2023-04-14T17:43:46.237Z,64.74
2023-04-14T17:46:15.408Z,64.61
2023-04-14T17:48:45.359Z,65.00
2023-04-14T17:51:14.431Z,64.66
2023-04-14T17:53:43.950Z,64.92
2023-04-14T17:56:13.809Z,64.50
2023-04-14T17:58:44.364Z,64.72
2023-04-14T18:01:15.181Z,64.78
2023-04-14T18:03:46.436Z,64.77
2023-04-14T18:06:17.260Z,64.92
2023-04-14T18:08:46.670Z,64.73
2023-04-14T18:11:15.507Z,64.67
2023-04-14T18:13:45.390Z,64.68
2023-04-14T18:16:17.931Z,64.67
2023-04-14T18:18:47.477Z,64.46
2023-04-14T18:21:17.948Z,64.82
2023-04-14T18:28:54.350Z,65.03
2023-04-14T18:31:26.003Z,64.58
2023-04-14T18:33:56.052Z,64.19
2023-04-14T18:36:27.282Z,64.47
2023-04-14T18:38:56.717Z,64.27
2023-04-14T18:41:25.581Z,64.57
2023-04-14T18:43:55.144Z,64.72
2023-04-14T18:46:26.225Z,64.32
2023-04-14T18:48:57.784Z,64.66
2023-04-14T18:51:28.924Z,64.71
2023-04-14T18:53:58.980Z,64.61
2023-04-14T18:56:33.509Z,64.35
2023-04-14T18:59:03.117Z,64.76
2023-04-14T19:01:35.983Z,64.59
2023-04-14T19:04:06.011Z,64.85
2023-04-14T19:06:35.194Z,64.92
2023-04-14T19:09:08.374Z,64.79
2023-04-14T19:11:38.010Z,64.99
2023-04-14T19:14:07.622Z,64.72
2023-04-14T19:16:39.646Z,64.80
2023-04-14T19:19:11.008Z,64.88
2023-04-14T19:21:40.506Z,64.88
2023-04-14T19:24:11.193Z,64.92
2023-04-14T19:26:40.884Z,65.01
2023-04-14T19:29:11.082Z,65.26
2023-04-14T19:31:44.292Z,65.04
2023-04-14T19:34:15.136Z,65.38
2023-04-14T19:36:45.503Z,65.21
2023-04-14T19:39:15.266Z,65.20
2023-04-14T19:41:45.469Z,65.14
2023-04-14T19:44:17.849Z,64.86
2023-04-14T19:46:51.016Z,65.08
2023-04-14T19:49:30.760Z,64.96
2023-04-14T19:52:00.277Z,65.26
2023-04-14T19:54:31.451Z,65.32
2023-04-14T19:57:02.432Z,65.01
2023-04-14T19:59:33.235Z,65.32
2023-04-14T20:02:05.720Z,65.31
2023-04-14T20:04:34.756Z,65.48
2023-04-14T20:07:04.258Z,65.45
2023-04-14T20:09:33.768Z,65.12
2023-04-14T20:12:04.649Z,65.35
2023-04-14T20:14:34.772Z,65.43
2023-04-14T20:17:04.841Z,65.04
2023-04-14T20:19:34.348Z,65.27
2023-04-14T20:22:04.877Z,64.98
2023-04-14T20:24:34.678Z,64.96
2023-04-14T20:27:04.418Z,65.05
2023-04-14T20:29:36.223Z,64.91
2023-04-14T20:32:08.139Z,64.54
2023-04-14T20:34:36.955Z,65.02
2023-04-14T20:37:07.089Z,64.96
2023-04-14T20:39:36.629Z,65.39
2023-04-14T20:42:05.265Z,65.51
2023-04-14T20:44:34.876Z,65.59
2023-04-14T20:47:04.263Z,65.53
2023-04-14T20:49:34.280Z,65.22
2023-04-14T20:52:05.350Z,64.97
2023-04-14T20:54:33.842Z,65.27
2023-04-14T20:57:03.941Z,65.11
2023-04-14T20:59:32.784Z,64.84
2023-04-14T21:02:01.998Z,64.89
2023-04-14T21:04:31.017Z,65.25
2023-04-14T21:07:01.122Z,65.48
2023-04-14T21:09:30.343Z,64.97
2023-04-14T21:12:15.425Z,64.94
2023-04-14T21:15:44.156Z,65.65
2023-04-14T21:17:34.334Z,65.62
2023-04-14T21:20:03.653Z,65.30
2023-04-14T21:22:34.083Z,65.62
2023-04-14T21:25:02.561Z,65.64
2023-04-14T21:27:31.304Z,65.65
2023-04-14T21:29:59.665Z,65.59
2023-04-14T21:32:28.488Z,65.36
2023-04-14T21:34:57.025Z,65.73
2023-04-14T21:37:25.481Z,65.74
2023-04-14T21:39:55.348Z,65.15
2023-04-14T21:42:23.840Z,65.56
2023-04-14T21:44:52.301Z,65.05
2023-04-14T21:47:20.835Z,65.07
2023-04-14T21:49:49.218Z,65.44
2023-04-14T21:52:19.279Z,65.10
2023-04-14T21:54:47.790Z,65.08
2023-04-14T21:57:17.684Z,65.03
2023-04-14T22:00:13.172Z,65.20
2023-04-14T22:02:41.684Z,65.27
2023-04-14T22:05:10.580Z,65.21
2023-04-14T22:07:38.962Z,65.71
2023-04-14T22:10:08.880Z,65.51
2023-04-14T22:12:39.899Z,66.04
2023-04-14T22:15:10.526Z,65.66
2023-04-14T22:17:39.577Z,65.74
2023-04-14T22:20:09.740Z,65.93
2023-04-14T22:22:38.401Z,65.76
2023-04-14T22:25:08.253Z,65.95
2023-04-14T22:27:38.365Z,65.57
2023-04-14T22:30:08.586Z,65.61
2023-04-14T22:32:37.361Z,65.70
2023-04-14T22:35:06.788Z,65.22
2023-04-14T22:37:35.125Z,65.48
2023-04-14T22:40:03.816Z,65.90
2023-04-14T22:42:32.248Z,66.12
2023-04-14T22:45:02.142Z,66.11
2023-04-14T22:47:30.881Z,65.90
2023-04-14T22:49:59.266Z,66.26
2023-04-14T22:52:28.024Z,65.92
2023-04-14T22:54:56.546Z,65.69
2023-04-14T22:57:24.950Z,65.55
2023-04-14T22:59:53.459Z,65.70
2023-04-14T23:02:23.412Z,65.65
2023-04-14T23:04:52.119Z,65.40
2023-04-14T23:07:20.599Z,65.45
2023-04-14T23:09:49.601Z,65.63
2023-04-14T23:12:18.023Z,65.21
2023-04-14T23:14:46.476Z,65.17
2023-04-14T23:17:14.983Z,65.01
2023-04-14T23:19:44.787Z,65.07
2023-04-14T23:22:13.355Z,64.91
2023-04-14T23:24:41.740Z,64.91
2023-04-14T23:27:10.235Z,64.45
2023-04-14T23:29:38.735Z,64.85
2023-04-14T23:32:09.093Z,64.81
2023-04-14T23:34:37.611Z,64.73
2023-04-14T23:37:07.765Z,64.73
2023-04-14T23:39:36.129Z,64.85
2023-04-14T23:42:04.656Z,65.09
2023-04-14T23:44:33.085Z,65.05
2023-04-14T23:47:01.596Z,65.21
2023-04-14T23:49:34.217Z,65.14
2023-04-14T23:52:04.589Z,65.02
2023-04-14T23:54:34.385Z,65.16
2023-04-14T23:57:03.301Z,65.33
2023-04-14T23:59:31.795Z,64.74
